< < Back
Terminal Aerodrome Forecast


Current Version              Previous Versions:   1  2  3  4  5  6  7  8  9  

Terminal Aerodrome Forecast

324
FTUS44 KHUN 201134
TAFHSV
TAF
KHSV 201134Z 2012/2112 14007KT P6SM SCT015
     FM201400 14010KT P6SM SCT030
     FM201900 15005KT P6SM SCT035
     FM210000 VRB03KT P6SM SKC=

Latest METAR

260
SAUS80 KWBC 202200 CCA
MTRHSV
METAR KHSV 202153Z 12007KT 10SM FEW055 30/16 A3002 RMK AO2 SLP157
T03000161 $


USA.gov is the U.S. government's official web portal to all federal, state and local government web resources and services.